sensor_id;sensor_type;location;lat;lon;timestamp;P1;durP1;ratioP1;P2;durP2;ratioP2
8652;SDS011;4364;52.426;9.424;2022-12-20T00:01:16;21.30;;;13.43;;
8652;SDS011;4364;52.426;9.424;2022-12-20T00:03:48;25.33;;;14.83;;
8652;SDS011;4364;52.426;9.424;2022-12-20T00:06:16;22.63;;;14.10;;
8652;SDS011;4364;52.426;9.424;2022-12-20T00:08:43;24.77;;;14.60;;
8652;SDS011;4364;52.426;9.424;2022-12-20T00:11:10;23.00;;;15.40;;
8652;SDS011;4364;52.426;9.424;2022-12-20T00:13:37;24.17;;;14.43;;
8652;SDS011;4364;52.426;9.424;2022-12-20T00:18:42;25.33;;;15.33;;
8652;SDS011;4364;52.426;9.424;2022-12-20T00:21:11;23.03;;;15.10;;
8652;SDS011;4364;52.426;9.424;2022-12-20T00:23:39;23.40;;;15.53;;
8652;SDS011;4364;52.426;9.424;2022-12-20T00:26:12;24.80;;;15.43;;
8652;SDS011;4364;52.426;9.424;2022-12-20T00:28:42;26.20;;;16.03;;
8652;SDS011;4364;52.426;9.424;2022-12-20T00:31:10;25.37;;;15.13;;
8652;SDS011;4364;52.426;9.424;2022-12-20T00:33:39;26.33;;;16.30;;
8652;SDS011;4364;52.426;9.424;2022-12-20T00:36:07;27.33;;;16.80;;
8652;SDS011;4364;52.426;9.424;2022-12-20T00:38:34;22.10;;;14.83;;
8652;SDS011;4364;52.426;9.424;2022-12-20T00:41:02;23.17;;;14.80;;
8652;SDS011;4364;52.426;9.424;2022-12-20T00:43:32;24.50;;;15.43;;
8652;SDS011;4364;52.426;9.424;2022-12-20T00:45:59;25.40;;;15.03;;
8652;SDS011;4364;52.426;9.424;2022-12-20T00:48:28;23.23;;;14.50;;
8652;SDS011;4364;52.426;9.424;2022-12-20T00:50:59;24.00;;;14.13;;
8652;SDS011;4364;52.426;9.424;2022-12-20T00:53:30;23.43;;;14.37;;
8652;SDS011;4364;52.426;9.424;2022-12-20T00:55:58;23.17;;;14.57;;
8652;SDS011;4364;52.426;9.424;2022-12-20T00:58:25;22.97;;;14.13;;
8652;SDS011;4364;52.426;9.424;2022-12-20T01:00:52;26.20;;;16.10;;
8652;SDS011;4364;52.426;9.424;2022-12-20T01:03:22;24.63;;;14.93;;
8652;SDS011;4364;52.426;9.424;2022-12-20T01:05:54;22.73;;;14.83;;
8652;SDS011;4364;52.426;9.424;2022-12-20T01:08:25;24.27;;;15.03;;
8652;SDS011;4364;52.426;9.424;2022-12-20T01:10:58;24.50;;;15.50;;
8652;SDS011;4364;52.426;9.424;2022-12-20T01:13:26;24.23;;;14.43;;
8652;SDS011;4364;52.426;9.424;2022-12-20T01:15:53;22.93;;;14.73;;
8652;SDS011;4364;52.426;9.424;2022-12-20T01:18:20;25.30;;;15.37;;
8652;SDS011;4364;52.426;9.424;2022-12-20T01:20:47;25.10;;;16.03;;
8652;SDS011;4364;52.426;9.424;2022-12-20T01:23:14;26.50;;;15.30;;
8652;SDS011;4364;52.426;9.424;2022-12-20T01:25:40;26.27;;;15.73;;
8652;SDS011;4364;52.426;9.424;2022-12-20T01:28:07;26.50;;;15.63;;
8652;SDS011;4364;52.426;9.424;2022-12-20T01:30:34;23.87;;;14.90;;
8652;SDS011;4364;52.426;9.424;2022-12-20T01:33:04;22.90;;;15.03;;
8652;SDS011;4364;52.426;9.424;2022-12-20T01:35:31;24.40;;;15.57;;
8652;SDS011;4364;52.426;9.424;2022-12-20T01:37:57;23.33;;;14.77;;
8652;SDS011;4364;52.426;9.424;2022-12-20T01:40:24;24.93;;;14.27;;
8652;SDS011;4364;52.426;9.424;2022-12-20T01:42:51;25.63;;;15.13;;
8652;SDS011;4364;52.426;9.424;2022-12-20T01:45:21;23.93;;;14.97;;
8652;SDS011;4364;52.426;9.424;2022-12-20T01:47:53;24.10;;;14.37;;
8652;SDS011;4364;52.426;9.424;2022-12-20T01:50:22;23.77;;;14.30;;
8652;SDS011;4364;52.426;9.424;2022-12-20T01:52:49;21.87;;;14.20;;
8652;SDS011;4364;52.426;9.424;2022-12-20T01:55:19;22.00;;;14.17;;
8652;SDS011;4364;52.426;9.424;2022-12-20T02:00:24;21.63;;;13.57;;
8652;SDS011;4364;52.426;9.424;2022-12-20T02:02:51;20.27;;;14.30;;
8652;SDS011;4364;52.426;9.424;2022-12-20T02:05:21;20.13;;;13.60;;
8652;SDS011;4364;52.426;9.424;2022-12-20T02:07:50;23.83;;;14.20;;
8652;SDS011;4364;52.426;9.424;2022-12-20T02:10:20;22.83;;;14.07;;
8652;SDS011;4364;52.426;9.424;2022-12-20T02:12:49;23.97;;;14.77;;
8652;SDS011;4364;52.426;9.424;2022-12-20T02:23:57;21.43;;;13.47;;
8652;SDS011;4364;52.426;9.424;2022-12-20T02:32:02;23.60;;;13.40;;
8652;SDS011;4364;52.426;9.424;2022-12-20T02:34:35;21.20;;;13.47;;
8652;SDS011;4364;52.426;9.424;2022-12-20T02:37:03;20.47;;;14.10;;
8652;SDS011;4364;52.426;9.424;2022-12-20T02:39:30;21.97;;;13.33;;
8652;SDS011;4364;52.426;9.424;2022-12-20T02:42:05;21.63;;;13.80;;
8652;SDS011;4364;52.426;9.424;2022-12-20T02:44:35;20.47;;;13.33;;
8652;SDS011;4364;52.426;9.424;2022-12-20T02:47:24;21.47;;;12.77;;
8652;SDS011;4364;52.426;9.424;2022-12-20T02:49:54;20.03;;;13.57;;
8652;SDS011;4364;52.426;9.424;2022-12-20T02:52:22;19.53;;;12.97;;
8652;SDS011;4364;52.426;9.424;2022-12-20T02:54:52;20.57;;;12.67;;
8652;SDS011;4364;52.426;9.424;2022-12-20T02:57:35;20.77;;;13.63;;
8652;SDS011;4364;52.426;9.424;2022-12-20T03:00:15;23.37;;;12.87;;
8652;SDS011;4364;52.426;9.424;2022-12-20T03:02:48;19.10;;;13.23;;
8652;SDS011;4364;52.426;9.424;2022-12-20T03:05:38;20.93;;;13.07;;
8652;SDS011;4364;52.426;9.424;2022-12-20T03:08:12;19.40;;;13.10;;
8652;SDS011;4364;52.426;9.424;2022-12-20T03:10:38;19.37;;;12.33;;
8652;SDS011;4364;52.426;9.424;2022-12-20T03:13:05;17.00;;;12.97;;
8652;SDS011;4364;52.426;9.424;2022-12-20T03:15:33;18.63;;;12.27;;
8652;SDS011;4364;52.426;9.424;2022-12-20T03:18:02;21.23;;;12.00;;
8652;SDS011;4364;52.426;9.424;2022-12-20T03:20:28;20.03;;;11.80;;
8652;SDS011;4364;52.426;9.424;2022-12-20T03:22:56;16.57;;;11.27;;
8652;SDS011;4364;52.426;9.424;2022-12-20T03:25:22;16.60;;;11.03;;
8652;SDS011;4364;52.426;9.424;2022-12-20T03:27:49;17.07;;;10.53;;
8652;SDS011;4364;52.426;9.424;2022-12-20T03:30:16;17.73;;;11.13;;
8652;SDS011;4364;52.426;9.424;2022-12-20T03:32:43;17.23;;;11.57;;
8652;SDS011;4364;52.426;9.424;2022-12-20T03:35:10;17.63;;;11.37;;
8652;SDS011;4364;52.426;9.424;2022-12-20T03:37:39;18.70;;;11.77;;
8652;SDS011;4364;52.426;9.424;2022-12-20T03:40:07;15.70;;;10.83;;
8652;SDS011;4364;52.426;9.424;2022-12-20T03:42:35;18.20;;;11.67;;
8652;SDS011;4364;52.426;9.424;2022-12-20T03:45:03;19.23;;;12.17;;
8652;SDS011;4364;52.426;9.424;2022-12-20T03:47:30;16.47;;;11.33;;
8652;SDS011;4364;52.426;9.424;2022-12-20T03:49:57;18.47;;;11.40;;
8652;SDS011;4364;52.426;9.424;2022-12-20T03:52:25;16.00;;;10.77;;
8652;SDS011;4364;52.426;9.424;2022-12-20T03:54:52;15.13;;;10.47;;
8652;SDS011;4364;52.426;9.424;2022-12-20T03:57:22;16.97;;;10.80;;
8652;SDS011;4364;52.426;9.424;2022-12-20T03:59:50;15.30;;;11.30;;
8652;SDS011;4364;52.426;9.424;2022-12-20T04:02:18;16.63;;;11.03;;
8652;SDS011;4364;52.426;9.424;2022-12-20T04:04:47;16.47;;;10.07;;
8652;SDS011;4364;52.426;9.424;2022-12-20T04:07:13;15.37;;;11.27;;
8652;SDS011;4364;52.426;9.424;2022-12-20T04:09:44;14.63;;;10.30;;
8652;SDS011;4364;52.426;9.424;2022-12-20T04:12:12;15.43;;;10.47;;
8652;SDS011;4364;52.426;9.424;2022-12-20T04:14:38;16.27;;;10.47;;
8652;SDS011;4364;52.426;9.424;2022-12-20T04:17:05;15.50;;;10.53;;
8652;SDS011;4364;52.426;9.424;2022-12-20T04:19:32;17.40;;;11.47;;
8652;SDS011;4364;52.426;9.424;2022-12-20T04:22:00;16.77;;;10.87;;
8652;SDS011;4364;52.426;9.424;2022-12-20T04:24:44;17.53;;;10.90;;
8652;SDS011;4364;52.426;9.424;2022-12-20T04:27:20;18.57;;;11.00;;
8652;SDS011;4364;52.426;9.424;2022-12-20T04:29:49;14.70;;;10.77;;
8652;SDS011;4364;52.426;9.424;2022-12-20T04:32:17;16.47;;;10.83;;
8652;SDS011;4364;52.426;9.424;2022-12-20T04:34:44;17.77;;;11.77;;
8652;SDS011;4364;52.426;9.424;2022-12-20T04:37:11;16.27;;;10.90;;
8652;SDS011;4364;52.426;9.424;2022-12-20T04:39:45;17.27;;;11.40;;
8652;SDS011;4364;52.426;9.424;2022-12-20T04:42:18;17.83;;;12.17;;
8652;SDS011;4364;52.426;9.424;2022-12-20T04:44:45;15.60;;;11.27;;
8652;SDS011;4364;52.426;9.424;2022-12-20T04:47:15;17.80;;;11.23;;
8652;SDS011;4364;52.426;9.424;2022-12-20T04:49:42;20.80;;;11.07;;
8652;SDS011;4364;52.426;9.424;2022-12-20T04:52:08;18.00;;;12.37;;
8652;SDS011;4364;52.426;9.424;2022-12-20T04:54:54;19.17;;;12.83;;
8652;SDS011;4364;52.426;9.424;2022-12-20T04:57:25;17.00;;;12.13;;
8652;SDS011;4364;52.426;9.424;2022-12-20T04:59:52;18.03;;;12.93;;
8652;SDS011;4364;52.426;9.424;2022-12-20T05:02:18;20.07;;;13.33;;
8652;SDS011;4364;52.426;9.424;2022-12-20T05:04:49;18.47;;;12.63;;
8652;SDS011;4364;52.426;9.424;2022-12-20T05:07:16;20.60;;;13.63;;
8652;SDS011;4364;52.426;9.424;2022-12-20T05:09:49;22.37;;;13.73;;
8652;SDS011;4364;52.426;9.424;2022-12-20T05:12:15;19.73;;;13.63;;
8652;SDS011;4364;52.426;9.424;2022-12-20T05:14:43;19.23;;;14.10;;
8652;SDS011;4364;52.426;9.424;2022-12-20T05:17:11;21.13;;;13.87;;
8652;SDS011;4364;52.426;9.424;2022-12-20T05:19:38;21.43;;;14.53;;
8652;SDS011;4364;52.426;9.424;2022-12-20T05:22:05;22.83;;;14.70;;
8652;SDS011;4364;52.426;9.424;2022-12-20T05:25:17;20.43;;;13.83;;
8652;SDS011;4364;52.426;9.424;2022-12-20T05:28:05;21.77;;;14.73;;
8652;SDS011;4364;52.426;9.424;2022-12-20T05:30:34;23.40;;;15.50;;
8652;SDS011;4364;52.426;9.424;2022-12-20T05:33:01;22.63;;;15.77;;
8652;SDS011;4364;52.426;9.424;2022-12-20T05:35:29;24.83;;;15.90;;
8652;SDS011;4364;52.426;9.424;2022-12-20T05:38:03;25.40;;;16.37;;
8652;SDS011;4364;52.426;9.424;2022-12-20T05:40:31;22.83;;;15.23;;
8652;SDS011;4364;52.426;9.424;2022-12-20T05:42:58;26.77;;;16.90;;
8652;SDS011;4364;52.426;9.424;2022-12-20T05:45:34;23.40;;;16.23;;
8652;SDS011;4364;52.426;9.424;2022-12-20T05:48:07;23.80;;;16.77;;
8652;SDS011;4364;52.426;9.424;2022-12-20T05:50:36;23.30;;;16.37;;
8652;SDS011;4364;52.426;9.424;2022-12-20T05:53:42;24.43;;;17.13;;
8652;SDS011;4364;52.426;9.424;2022-12-20T05:56:09;23.00;;;14.97;;
8652;SDS011;4364;52.426;9.424;2022-12-20T05:58:37;23.67;;;15.13;;
8652;SDS011;4364;52.426;9.424;2022-12-20T06:01:05;23.57;;;16.03;;
8652;SDS011;4364;52.426;9.424;2022-12-20T06:03:38;23.87;;;15.83;;
8652;SDS011;4364;52.426;9.424;2022-12-20T06:06:11;24.17;;;15.60;;
8652;SDS011;4364;52.426;9.424;2022-12-20T06:08:43;23.20;;;15.07;;
8652;SDS011;4364;52.426;9.424;2022-12-20T06:11:15;22.40;;;15.03;;
8652;SDS011;4364;52.426;9.424;2022-12-20T06:14:08;24.40;;;15.60;;
8652;SDS011;4364;52.426;9.424;2022-12-20T06:16:38;23.77;;;16.03;;
8652;SDS011;4364;52.426;9.424;2022-12-20T06:19:07;24.83;;;17.13;;
8652;SDS011;4364;52.426;9.424;2022-12-20T06:21:34;24.20;;;15.70;;
8652;SDS011;4364;52.426;9.424;2022-12-20T06:24:01;24.33;;;15.90;;
8652;SDS011;4364;52.426;9.424;2022-12-20T06:26:28;22.53;;;15.07;;
8652;SDS011;4364;52.426;9.424;2022-12-20T06:29:03;22.20;;;14.77;;
8652;SDS011;4364;52.426;9.424;2022-12-20T06:31:36;21.77;;;15.10;;
8652;SDS011;4364;52.426;9.424;2022-12-20T06:34:03;22.40;;;14.53;;
8652;SDS011;4364;52.426;9.424;2022-12-20T06:36:33;23.90;;;14.60;;
8652;SDS011;4364;52.426;9.424;2022-12-20T06:39:00;23.40;;;15.27;;
8652;SDS011;4364;52.426;9.424;2022-12-20T06:41:38;26.00;;;15.30;;
8652;SDS011;4364;52.426;9.424;2022-12-20T06:44:05;26.93;;;16.57;;
8652;SDS011;4364;52.426;9.424;2022-12-20T06:46:33;22.13;;;15.17;;
8652;SDS011;4364;52.426;9.424;2022-12-20T06:48:59;23.07;;;15.57;;
8652;SDS011;4364;52.426;9.424;2022-12-20T06:51:26;23.43;;;16.30;;
8652;SDS011;4364;52.426;9.424;2022-12-20T06:53:53;23.40;;;14.77;;
8652;SDS011;4364;52.426;9.424;2022-12-20T06:56:21;23.07;;;14.50;;
8652;SDS011;4364;52.426;9.424;2022-12-20T06:58:47;20.73;;;14.10;;
8652;SDS011;4364;52.426;9.424;2022-12-20T07:01:14;22.90;;;15.33;;
8652;SDS011;4364;52.426;9.424;2022-12-20T07:03:41;22.23;;;14.43;;
8652;SDS011;4364;52.426;9.424;2022-12-20T07:06:08;22.50;;;14.77;;
8652;SDS011;4364;52.426;9.424;2022-12-20T07:08:34;19.93;;;14.33;;
8652;SDS011;4364;52.426;9.424;2022-12-20T07:11:04;21.97;;;14.73;;
8652;SDS011;4364;52.426;9.424;2022-12-20T07:13:32;19.67;;;13.53;;
8652;SDS011;4364;52.426;9.424;2022-12-20T07:16:00;22.80;;;14.77;;
8652;SDS011;4364;52.426;9.424;2022-12-20T07:18:28;21.40;;;14.40;;
8652;SDS011;4364;52.426;9.424;2022-12-20T07:20:59;21.40;;;14.93;;
8652;SDS011;4364;52.426;9.424;2022-12-20T07:23:29;21.97;;;15.00;;
8652;SDS011;4364;52.426;9.424;2022-12-20T07:25:56;21.50;;;14.50;;
8652;SDS011;4364;52.426;9.424;2022-12-20T07:28:25;20.17;;;13.67;;
8652;SDS011;4364;52.426;9.424;2022-12-20T07:30:52;18.57;;;13.83;;
8652;SDS011;4364;52.426;9.424;2022-12-20T07:33:19;23.97;;;14.57;;
8652;SDS011;4364;52.426;9.424;2022-12-20T07:35:46;20.47;;;13.53;;
8652;SDS011;4364;52.426;9.424;2022-12-20T07:38:19;20.47;;;13.57;;
8652;SDS011;4364;52.426;9.424;2022-12-20T07:40:46;21.33;;;13.53;;
8652;SDS011;4364;52.426;9.424;2022-12-20T07:43:12;21.67;;;14.13;;
8652;SDS011;4364;52.426;9.424;2022-12-20T07:45:39;22.33;;;13.90;;
8652;SDS011;4364;52.426;9.424;2022-12-20T07:48:05;18.27;;;13.50;;
8652;SDS011;4364;52.426;9.424;2022-12-20T07:50:39;17.07;;;12.83;;
8652;SDS011;4364;52.426;9.424;2022-12-20T07:53:06;18.37;;;12.73;;
8652;SDS011;4364;52.426;9.424;2022-12-20T07:55:35;19.43;;;12.57;;
8652;SDS011;4364;52.426;9.424;2022-12-20T07:58:04;19.53;;;13.80;;
8652;SDS011;4364;52.426;9.424;2022-12-20T08:00:34;15.93;;;12.27;;
8652;SDS011;4364;52.426;9.424;2022-12-20T08:03:06;17.73;;;13.07;;
8652;SDS011;4364;52.426;9.424;2022-12-20T08:05:38;18.97;;;12.73;;
8652;SDS011;4364;52.426;9.424;2022-12-20T08:08:08;16.80;;;11.90;;
8652;SDS011;4364;52.426;9.424;2022-12-20T08:10:35;18.97;;;13.27;;
8652;SDS011;4364;52.426;9.424;2022-12-20T08:13:03;18.57;;;12.47;;
8652;SDS011;4364;52.426;9.424;2022-12-20T08:15:32;19.33;;;12.27;;
8652;SDS011;4364;52.426;9.424;2022-12-20T08:18:00;18.53;;;12.50;;
8652;SDS011;4364;52.426;9.424;2022-12-20T08:20:28;17.77;;;12.90;;
8652;SDS011;4364;52.426;9.424;2022-12-20T08:22:55;18.93;;;12.53;;
8652;SDS011;4364;52.426;9.424;2022-12-20T08:25:21;18.50;;;12.40;;
8652;SDS011;4364;52.426;9.424;2022-12-20T08:27:48;18.17;;;11.97;;
8652;SDS011;4364;52.426;9.424;2022-12-20T08:30:15;15.60;;;11.23;;
8652;SDS011;4364;52.426;9.424;2022-12-20T08:32:42;18.97;;;12.87;;
8652;SDS011;4364;52.426;9.424;2022-12-20T08:35:09;16.90;;;12.33;;
8652;SDS011;4364;52.426;9.424;2022-12-20T08:37:36;17.70;;;13.23;;
8652;SDS011;4364;52.426;9.424;2022-12-20T08:40:02;19.40;;;13.30;;
8652;SDS011;4364;52.426;9.424;2022-12-20T08:42:30;18.50;;;13.23;;
8652;SDS011;4364;52.426;9.424;2022-12-20T08:44:56;17.20;;;12.23;;
8652;SDS011;4364;52.426;9.424;2022-12-20T08:47:22;17.50;;;12.80;;
8652;SDS011;4364;52.426;9.424;2022-12-20T08:49:49;19.40;;;13.03;;
8652;SDS011;4364;52.426;9.424;2022-12-20T08:52:16;19.50;;;12.73;;
8652;SDS011;4364;52.426;9.424;2022-12-20T08:54:42;18.80;;;11.77;;
8652;SDS011;4364;52.426;9.424;2022-12-20T08:57:09;17.50;;;12.43;;
8652;SDS011;4364;52.426;9.424;2022-12-20T08:59:35;18.70;;;11.93;;
8652;SDS011;4364;52.426;9.424;2022-12-20T09:02:01;17.00;;;11.63;;
8652;SDS011;4364;52.426;9.424;2022-12-20T09:04:28;19.97;;;12.90;;
8652;SDS011;4364;52.426;9.424;2022-12-20T09:06:55;19.33;;;12.67;;
8652;SDS011;4364;52.426;9.424;2022-12-20T09:09:21;18.57;;;11.83;;
8652;SDS011;4364;52.426;9.424;2022-12-20T09:11:48;16.87;;;11.20;;
8652;SDS011;4364;52.426;9.424;2022-12-20T09:14:15;16.97;;;10.60;;
8652;SDS011;4364;52.426;9.424;2022-12-20T09:16:41;16.70;;;11.70;;
8652;SDS011;4364;52.426;9.424;2022-12-20T09:19:09;16.47;;;11.50;;
8652;SDS011;4364;52.426;9.424;2022-12-20T09:21:38;16.40;;;11.23;;
8652;SDS011;4364;52.426;9.424;2022-12-20T09:24:04;14.30;;;10.57;;
8652;SDS011;4364;52.426;9.424;2022-12-20T09:26:31;17.03;;;11.37;;
8652;SDS011;4364;52.426;9.424;2022-12-20T09:29:00;17.70;;;11.17;;
8652;SDS011;4364;52.426;9.424;2022-12-20T09:31:27;14.53;;;10.73;;
8652;SDS011;4364;52.426;9.424;2022-12-20T09:33:55;16.33;;;10.77;;
8652;SDS011;4364;52.426;9.424;2022-12-20T09:36:23;15.93;;;10.83;;
8652;SDS011;4364;52.426;9.424;2022-12-20T09:38:52;19.40;;;11.80;;
8652;SDS011;4364;52.426;9.424;2022-12-20T09:43:59;14.57;;;10.33;;
8652;SDS011;4364;52.426;9.424;2022-12-20T09:46:29;13.67;;;9.80;;
8652;SDS011;4364;52.426;9.424;2022-12-20T09:48:56;16.57;;;10.30;;
8652;SDS011;4364;52.426;9.424;2022-12-20T09:57:22;12.60;;;9.07;;
8652;SDS011;4364;52.426;9.424;2022-12-20T09:59:57;14.07;;;9.90;;
8652;SDS011;4364;52.426;9.424;2022-12-20T10:02:24;15.50;;;10.50;;
8652;SDS011;4364;52.426;9.424;2022-12-20T10:05:28;15.37;;;9.33;;
8652;SDS011;4364;52.426;9.424;2022-12-20T10:08:14;15.73;;;10.13;;
8652;SDS011;4364;52.426;9.424;2022-12-20T10:10:53;13.07;;;9.13;;
8652;SDS011;4364;52.426;9.424;2022-12-20T10:13:37;14.80;;;9.23;;
8652;SDS011;4364;52.426;9.424;2022-12-20T10:16:50;13.40;;;8.93;;
8652;SDS011;4364;52.426;9.424;2022-12-20T10:22:06;12.37;;;9.40;;
8652;SDS011;4364;52.426;9.424;2022-12-20T10:24:40;10.87;;;8.10;;
8652;SDS011;4364;52.426;9.424;2022-12-20T10:27:13;12.27;;;8.40;;
8652;SDS011;4364;52.426;9.424;2022-12-20T10:29:42;12.73;;;8.30;;
8652;SDS011;4364;52.426;9.424;2022-12-20T10:32:12;12.97;;;8.73;;
8652;SDS011;4364;52.426;9.424;2022-12-20T10:35:41;11.70;;;7.70;;
8652;SDS011;4364;52.426;9.424;2022-12-20T10:37:36;13.23;;;8.10;;
8652;SDS011;4364;52.426;9.424;2022-12-20T10:40:11;15.10;;;8.60;;
8652;SDS011;4364;52.426;9.424;2022-12-20T10:43:16;12.30;;;8.07;;
8652;SDS011;4364;52.426;9.424;2022-12-20T10:45:54;11.60;;;8.23;;
8652;SDS011;4364;52.426;9.424;2022-12-20T10:48:31;12.90;;;8.67;;
8652;SDS011;4364;52.426;9.424;2022-12-20T10:54:00;10.80;;;7.87;;
8652;SDS011;4364;52.426;9.424;2022-12-20T10:56:32;10.50;;;8.17;;
8652;SDS011;4364;52.426;9.424;2022-12-20T10:59:03;12.70;;;8.90;;
8652;SDS011;4364;52.426;9.424;2022-12-20T11:01:50;12.13;;;8.00;;
8652;SDS011;4364;52.426;9.424;2022-12-20T11:04:30;11.60;;;7.83;;
8652;SDS011;4364;52.426;9.424;2022-12-20T11:06:59;11.73;;;8.27;;
8652;SDS011;4364;52.426;9.424;2022-12-20T11:11:56;14.30;;;9.07;;
8652;SDS011;4364;52.426;9.424;2022-12-20T11:17:21;14.80;;;9.03;;
8652;SDS011;4364;52.426;9.424;2022-12-20T11:23:02;11.30;;;8.13;;
8652;SDS011;4364;52.426;9.424;2022-12-20T11:36:57;10.83;;;8.33;;
8652;SDS011;4364;52.426;9.424;2022-12-20T11:41:59;13.23;;;7.70;;
8652;SDS011;4364;52.426;9.424;2022-12-20T11:50:37;12.67;;;7.63;;
8652;SDS011;4364;52.426;9.424;2022-12-20T11:55:53;9.33;;;6.97;;
8652;SDS011;4364;52.426;9.424;2022-12-20T12:01:11;10.47;;;7.43;;
8652;SDS011;4364;52.426;9.424;2022-12-20T12:03:52;10.27;;;7.20;;
8652;SDS011;4364;52.426;9.424;2022-12-20T12:06:24;9.70;;;6.57;;
8652;SDS011;4364;52.426;9.424;2022-12-20T12:09:02;10.90;;;6.90;;
8652;SDS011;4364;52.426;9.424;2022-12-20T12:11:39;11.83;;;7.00;;
8652;SDS011;4364;52.426;9.424;2022-12-20T12:17:12;9.57;;;7.17;;
8652;SDS011;4364;52.426;9.424;2022-12-20T12:19:48;11.30;;;6.97;;
8652;SDS011;4364;52.426;9.424;2022-12-20T12:22:18;10.33;;;6.63;;
8652;SDS011;4364;52.426;9.424;2022-12-20T12:24:50;10.70;;;7.13;;
8652;SDS011;4364;52.426;9.424;2022-12-20T12:27:23;11.83;;;8.10;;
8652;SDS011;4364;52.426;9.424;2022-12-20T12:29:52;8.63;;;6.27;;
8652;SDS011;4364;52.426;9.424;2022-12-20T12:32:26;8.83;;;6.37;;
8652;SDS011;4364;52.426;9.424;2022-12-20T12:46:07;9.40;;;7.00;;
8652;SDS011;4364;52.426;9.424;2022-12-20T12:48:59;10.13;;;6.87;;
8652;SDS011;4364;52.426;9.424;2022-12-20T12:51:32;9.53;;;7.07;;
8652;SDS011;4364;52.426;9.424;2022-12-20T12:56:38;9.83;;;6.60;;
8652;SDS011;4364;52.426;9.424;2022-12-20T12:59:23;9.97;;;7.60;;
8652;SDS011;4364;52.426;9.424;2022-12-20T13:05:24;9.90;;;6.67;;
8652;SDS011;4364;52.426;9.424;2022-12-20T13:09:59;9.67;;;7.03;;
8652;SDS011;4364;52.426;9.424;2022-12-20T13:17:50;9.13;;;6.73;;
8652;SDS011;4364;52.426;9.424;2022-12-20T13:20:28;11.00;;;8.13;;
8652;SDS011;4364;52.426;9.424;2022-12-20T13:25:34;11.23;;;7.83;;
8652;SDS011;4364;52.426;9.424;2022-12-20T13:39:00;10.30;;;7.87;;
8652;SDS011;4364;52.426;9.424;2022-12-20T13:44:17;9.50;;;7.13;;
8652;SDS011;4364;52.426;9.424;2022-12-20T13:46:56;11.13;;;7.87;;
8652;SDS011;4364;52.426;9.424;2022-12-20T13:49:37;11.60;;;7.17;;
8652;SDS011;4364;52.426;9.424;2022-12-20T13:52:51;10.07;;;7.70;;
8652;SDS011;4364;52.426;9.424;2022-12-20T13:55:07;10.13;;;7.87;;
8652;SDS011;4364;52.426;9.424;2022-12-20T13:57:47;10.17;;;7.77;;
8652;SDS011;4364;52.426;9.424;2022-12-20T14:00:15;11.87;;;7.60;;
8652;SDS011;4364;52.426;9.424;2022-12-20T14:02:52;12.30;;;7.87;;
8652;SDS011;4364;52.426;9.424;2022-12-20T14:05:22;11.07;;;8.13;;
8652;SDS011;4364;52.426;9.424;2022-12-20T14:07:57;10.93;;;7.90;;
8652;SDS011;4364;52.426;9.424;2022-12-20T14:10:26;11.13;;;7.87;;
8652;SDS011;4364;52.426;9.424;2022-12-20T14:12:56;10.63;;;8.07;;
8652;SDS011;4364;52.426;9.424;2022-12-20T14:15:30;9.60;;;7.40;;
8652;SDS011;4364;52.426;9.424;2022-12-20T14:18:04;11.63;;;7.00;;
8652;SDS011;4364;52.426;9.424;2022-12-20T14:20:32;8.40;;;6.83;;
8652;SDS011;4364;52.426;9.424;2022-12-20T14:23:14;10.50;;;7.03;;
8652;SDS011;4364;52.426;9.424;2022-12-20T14:31:06;11.23;;;6.80;;
8652;SDS011;4364;52.426;9.424;2022-12-20T14:33:47;10.37;;;6.67;;
8652;SDS011;4364;52.426;9.424;2022-12-20T14:38:42;10.17;;;6.90;;
8652;SDS011;4364;52.426;9.424;2022-12-20T14:41:27;11.03;;;7.77;;
8652;SDS011;4364;52.426;9.424;2022-12-20T14:43:55;10.93;;;7.17;;
8652;SDS011;4364;52.426;9.424;2022-12-20T14:46:23;10.40;;;7.00;;
8652;SDS011;4364;52.426;9.424;2022-12-20T14:49:04;9.63;;;7.07;;
8652;SDS011;4364;52.426;9.424;2022-12-20T14:51:44;10.10;;;7.27;;
8652;SDS011;4364;52.426;9.424;2022-12-20T14:54:15;9.53;;;7.33;;
8652;SDS011;4364;52.426;9.424;2022-12-20T14:57:09;10.00;;;7.40;;
8652;SDS011;4364;52.426;9.424;2022-12-20T14:59:36;9.93;;;7.23;;
8652;SDS011;4364;52.426;9.424;2022-12-20T15:08:11;10.73;;;7.53;;
8652;SDS011;4364;52.426;9.424;2022-12-20T15:10:48;10.20;;;7.33;;
8652;SDS011;4364;52.426;9.424;2022-12-20T15:13:18;10.57;;;6.67;;
8652;SDS011;4364;52.426;9.424;2022-12-20T15:15:46;10.63;;;6.77;;
8652;SDS011;4364;52.426;9.424;2022-12-20T15:18:14;9.53;;;6.57;;
8652;SDS011;4364;52.426;9.424;2022-12-20T15:20:43;9.60;;;6.97;;
8652;SDS011;4364;52.426;9.424;2022-12-20T15:23:11;10.07;;;7.20;;
8652;SDS011;4364;52.426;9.424;2022-12-20T15:25:40;9.47;;;6.80;;
8652;SDS011;4364;52.426;9.424;2022-12-20T15:28:21;12.40;;;7.50;;
8652;SDS011;4364;52.426;9.424;2022-12-20T15:30:49;8.60;;;6.60;;
8652;SDS011;4364;52.426;9.424;2022-12-20T15:33:19;10.47;;;7.07;;
8652;SDS011;4364;52.426;9.424;2022-12-20T15:35:51;9.30;;;6.57;;
8652;SDS011;4364;52.426;9.424;2022-12-20T15:38:19;9.83;;;7.30;;
8652;SDS011;4364;52.426;9.424;2022-12-20T15:41:12;8.77;;;6.80;;
8652;SDS011;4364;52.426;9.424;2022-12-20T15:43:43;11.40;;;6.97;;
8652;SDS011;4364;52.426;9.424;2022-12-20T15:46:10;10.20;;;6.90;;
8652;SDS011;4364;52.426;9.424;2022-12-20T15:48:37;11.13;;;7.27;;
8652;SDS011;4364;52.426;9.424;2022-12-20T15:51:06;8.23;;;7.13;;
8652;SDS011;4364;52.426;9.424;2022-12-20T15:53:40;11.80;;;6.73;;
8652;SDS011;4364;52.426;9.424;2022-12-20T15:56:07;10.43;;;7.07;;
8652;SDS011;4364;52.426;9.424;2022-12-20T15:58:41;10.43;;;6.80;;
8652;SDS011;4364;52.426;9.424;2022-12-20T16:01:08;9.73;;;7.20;;
8652;SDS011;4364;52.426;9.424;2022-12-20T16:03:39;8.57;;;6.33;;
8652;SDS011;4364;52.426;9.424;2022-12-20T16:06:07;10.97;;;6.90;;
8652;SDS011;4364;52.426;9.424;2022-12-20T16:08:40;8.53;;;6.97;;
8652;SDS011;4364;52.426;9.424;2022-12-20T16:11:20;9.70;;;7.07;;
8652;SDS011;4364;52.426;9.424;2022-12-20T16:13:48;10.73;;;6.77;;
8652;SDS011;4364;52.426;9.424;2022-12-20T16:16:16;9.23;;;6.67;;
8652;SDS011;4364;52.426;9.424;2022-12-20T16:18:45;8.33;;;6.47;;
8652;SDS011;4364;52.426;9.424;2022-12-20T16:21:22;10.27;;;6.97;;
8652;SDS011;4364;52.426;9.424;2022-12-20T16:23:59;9.77;;;6.40;;
8652;SDS011;4364;52.426;9.424;2022-12-20T16:26:26;10.07;;;6.80;;
8652;SDS011;4364;52.426;9.424;2022-12-20T16:28:53;8.60;;;6.53;;
8652;SDS011;4364;52.426;9.424;2022-12-20T16:31:24;9.03;;;7.07;;
8652;SDS011;4364;52.426;9.424;2022-12-20T16:33:59;8.30;;;5.97;;
8652;SDS011;4364;52.426;9.424;2022-12-20T16:36:30;8.80;;;6.67;;
8652;SDS011;4364;52.426;9.424;2022-12-20T16:38:58;9.50;;;6.83;;
8652;SDS011;4364;52.426;9.424;2022-12-20T16:41:28;8.13;;;6.53;;
8652;SDS011;4364;52.426;9.424;2022-12-20T16:43:57;8.43;;;6.23;;
8652;SDS011;4364;52.426;9.424;2022-12-20T16:46:26;8.37;;;5.77;;
8652;SDS011;4364;52.426;9.424;2022-12-20T16:48:56;8.60;;;6.37;;
8652;SDS011;4364;52.426;9.424;2022-12-20T16:53:54;8.30;;;6.17;;
8652;SDS011;4364;52.426;9.424;2022-12-20T16:56:42;11.43;;;6.53;;
8652;SDS011;4364;52.426;9.424;2022-12-20T16:59:09;10.67;;;6.80;;
8652;SDS011;4364;52.426;9.424;2022-12-20T17:01:47;11.40;;;8.00;;
8652;SDS011;4364;52.426;9.424;2022-12-20T17:04:17;9.23;;;6.20;;
8652;SDS011;4364;52.426;9.424;2022-12-20T17:06:44;10.70;;;7.17;;
8652;SDS011;4364;52.426;9.424;2022-12-20T17:09:11;7.37;;;6.10;;
8652;SDS011;4364;52.426;9.424;2022-12-20T17:11:55;10.13;;;7.57;;
8652;SDS011;4364;52.426;9.424;2022-12-20T17:14:23;8.60;;;6.57;;
8652;SDS011;4364;52.426;9.424;2022-12-20T17:16:50;12.03;;;6.60;;
8652;SDS011;4364;52.426;9.424;2022-12-20T17:19:16;9.03;;;6.27;;
8652;SDS011;4364;52.426;9.424;2022-12-20T17:21:44;8.83;;;6.70;;
8652;SDS011;4364;52.426;9.424;2022-12-20T17:24:31;8.93;;;6.53;;
8652;SDS011;4364;52.426;9.424;2022-12-20T17:26:57;9.17;;;7.07;;